createdAt,value
2022-10-17T00:00:17.208Z,8.20
2022-10-17T00:01:17.496Z,8.20
2022-10-17T00:02:17.248Z,7.80
2022-10-17T00:03:17.458Z,6.90
2022-10-17T00:04:17.200Z,8.10
2022-10-17T00:05:17.449Z,7.60
2022-10-17T00:06:17.258Z,7.30
2022-10-17T00:07:17.470Z,7.90
2022-10-17T00:08:17.219Z,8.10
2022-10-17T00:09:17.312Z,6.00
2022-10-17T00:10:17.179Z,8.10
2022-10-17T00:11:17.359Z,9.10
2022-10-17T00:12:17.249Z,7.30
2022-10-17T00:13:17.269Z,6.10
2022-10-17T00:14:17.229Z,8.10
2022-10-17T00:15:17.268Z,8.40
2022-10-17T00:16:16.454Z,7.40
2022-10-17T00:17:17.140Z,8.90
2022-10-17T00:18:16.417Z,9.10
2022-10-17T00:19:18.140Z,7.10
2022-10-17T00:20:16.404Z,8.20
2022-10-17T00:21:17.049Z,7.60
2022-10-17T00:22:17.389Z,9.50
2022-10-17T00:23:17.022Z,9.00
2022-10-17T00:24:16.360Z,6.60
2022-10-17T00:25:17.790Z,8.50
2022-10-17T00:26:16.599Z,7.40
2022-10-17T00:27:16.362Z,7.40
2022-10-17T00:28:17.171Z,8.90
2022-10-17T00:29:16.289Z,7.70
2022-10-17T00:30:17.820Z,7.00
2022-10-17T00:31:16.870Z,7.60
2022-10-17T00:32:16.339Z,8.80
2022-10-17T00:33:18.068Z,8.70
2022-10-17T00:34:17.619Z,6.80
2022-10-17T00:35:16.229Z,7.80
2022-10-17T00:36:17.839Z,8.10
2022-10-17T00:37:17.080Z,7.90
2022-10-17T00:38:16.859Z,6.90
2022-10-17T00:39:16.188Z,6.80
2022-10-17T00:40:16.858Z,8.30
2022-10-17T00:41:17.001Z,7.70
2022-10-17T00:42:16.219Z,7.00
2022-10-17T00:43:17.821Z,6.60
2022-10-17T00:44:16.650Z,7.50
2022-10-17T00:45:16.921Z,7.80
2022-10-17T00:46:16.119Z,7.90
2022-10-17T00:47:16.713Z,7.30
2022-10-17T00:48:18.890Z,7.80
2022-10-17T00:49:16.750Z,7.80
2022-10-17T00:50:16.099Z,7.50
2022-10-17T00:51:17.562Z,8.90
2022-10-17T00:52:16.339Z,8.10
2022-10-17T00:53:16.829Z,7.00
2022-10-17T00:54:16.829Z,7.00
2022-10-17T00:55:16.768Z,6.30
2022-10-17T00:56:16.809Z,6.20
2022-10-17T00:57:16.009Z,5.50
2022-10-17T00:58:17.371Z,5.50
2022-10-17T00:59:16.079Z,6.30
2022-10-17T01:00:16.854Z,6.00
2022-10-17T01:01:16.840Z,5.10
2022-10-17T01:02:16.554Z,5.10
2022-10-17T01:03:16.819Z,4.90
2022-10-17T01:04:16.571Z,5.90
2022-10-17T01:05:16.721Z,5.40
2022-10-17T01:06:16.559Z,5.10
2022-10-17T01:07:15.918Z,5.70
2022-10-17T01:08:17.399Z,6.00
2022-10-17T01:09:16.730Z,6.00
2022-10-17T01:10:15.925Z,7.50
2022-10-17T01:11:16.719Z,7.40
2022-10-17T01:12:16.529Z,6.80
2022-10-17T01:13:16.709Z,6.00
2022-10-17T01:14:16.589Z,6.10
2022-10-17T01:15:16.589Z,6.90
2022-10-17T01:16:15.818Z,6.70
2022-10-17T01:17:16.679Z,7.10
2022-10-17T01:18:15.840Z,6.20
2022-10-17T01:19:16.563Z,5.90
2022-10-17T01:20:16.559Z,6.70
2022-10-17T01:21:16.445Z,5.90
2022-10-17T01:22:16.552Z,6.80
2022-10-17T01:23:16.399Z,6.90
2022-10-17T01:24:16.599Z,7.60
2022-10-17T01:25:15.719Z,5.40
2022-10-17T01:26:17.339Z,6.80
2022-10-17T01:27:16.550Z,6.70
2022-10-17T01:28:16.498Z,6.30
2022-10-17T01:29:16.430Z,8.30
2022-10-17T01:30:16.480Z,5.90
2022-10-17T01:31:16.589Z,5.70
2022-10-17T01:32:17.448Z,5.80
2022-10-17T01:33:16.390Z,7.00
2022-10-17T01:34:15.669Z,7.50
2022-10-17T01:35:16.821Z,7.30
2022-10-17T01:36:16.329Z,6.90
2022-10-17T01:37:16.360Z,6.30
2022-10-17T01:38:15.589Z,7.10
2022-10-17T01:39:16.529Z,7.70
2022-10-17T01:40:15.581Z,6.30
2022-10-17T01:41:16.359Z,6.80
2022-10-17T01:42:16.209Z,6.10
2022-10-17T01:43:16.329Z,6.80
2022-10-17T01:44:15.581Z,6.80
2022-10-17T01:45:16.431Z,6.20
2022-10-17T01:46:15.499Z,6.40
2022-10-17T01:47:17.309Z,7.50
2022-10-17T01:48:16.252Z,6.50
2022-10-17T01:49:16.141Z,6.40
2022-10-17T01:50:16.249Z,6.90
2022-10-17T01:51:15.449Z,6.40
2022-10-17T01:52:16.228Z,6.20
2022-10-17T01:53:16.310Z,5.90
2022-10-17T01:54:16.228Z,6.00
2022-10-17T01:55:16.119Z,7.20
2022-10-17T01:56:16.319Z,8.30
2022-10-17T01:57:16.049Z,7.60
2022-10-17T01:58:15.379Z,7.20
2022-10-17T01:59:16.933Z,7.80
2022-10-17T02:00:15.668Z,6.50
2022-10-17T02:01:15.440Z,7.50
2022-10-17T02:02:16.869Z,7.00
2022-10-17T02:03:16.170Z,7.70
2022-10-17T02:04:15.319Z,7.40
2022-10-17T02:05:16.778Z,8.20
2022-10-17T02:06:15.698Z,7.10
2022-10-17T02:07:15.299Z,7.80
2022-10-17T02:08:16.919Z,6.40
2022-10-17T02:09:15.929Z,6.90
2022-10-17T02:10:15.339Z,7.60
2022-10-17T02:11:16.279Z,8.00
2022-10-17T02:12:15.905Z,8.30
2022-10-17T02:13:16.079Z,8.00
2022-10-17T02:14:15.931Z,7.70
2022-10-17T02:15:16.129Z,8.10
2022-10-17T02:16:15.988Z,7.80
2022-10-17T02:17:15.189Z,7.00
2022-10-17T02:18:17.118Z,7.80
2022-10-17T02:19:15.848Z,9.70
2022-10-17T02:20:15.938Z,7.90
2022-10-17T02:21:16.408Z,8.00
2022-10-17T02:22:15.250Z,7.60
2022-10-17T02:23:15.803Z,7.40
2022-10-17T02:24:15.900Z,8.80
2022-10-17T02:25:15.099Z,7.00
2022-10-17T02:26:16.298Z,8.70
2022-10-17T02:27:15.760Z,7.80
2022-10-17T02:28:15.919Z,8.10
2022-10-17T02:29:15.753Z,8.40
2022-10-17T02:30:15.062Z,8.30
2022-10-17T02:31:15.982Z,8.10
2022-10-17T02:32:15.900Z,7.10
2022-10-17T02:33:15.018Z,6.60
2022-10-17T02:34:16.319Z,8.40
2022-10-17T02:35:15.929Z,7.70
2022-10-17T02:36:15.718Z,7.40
2022-10-17T02:37:14.979Z,8.60
2022-10-17T02:38:15.001Z,8.50
2022-10-17T02:39:16.420Z,7.50
2022-10-17T02:40:16.659Z,8.20
2022-10-17T02:41:15.848Z,9.00
2022-10-17T02:42:14.939Z,8.60
2022-10-17T02:43:15.920Z,6.30
2022-10-17T02:44:15.659Z,7.80
2022-10-17T02:45:15.699Z,8.10
2022-10-17T02:46:14.899Z,8.80
2022-10-17T02:47:16.540Z,9.30
2022-10-17T02:48:15.310Z,8.20
2022-10-17T02:49:14.848Z,7.50
2022-10-17T02:50:16.706Z,7.50
2022-10-17T02:51:14.899Z,7.60
2022-10-17T02:52:14.880Z,6.50
2022-10-17T02:53:16.397Z,7.00
2022-10-17T02:54:15.649Z,7.80
2022-10-17T02:55:14.791Z,8.30
2022-10-17T02:56:15.570Z,7.10
2022-10-17T02:57:14.831Z,8.30
2022-10-17T02:58:15.840Z,6.70
2022-10-17T02:59:14.750Z,8.30
2022-10-17T03:00:16.412Z,7.40
2022-10-17T03:01:15.193Z,7.30
2022-10-17T03:02:15.629Z,5.70
2022-10-17T03:03:15.580Z,7.90
2022-10-17T03:04:15.530Z,7.50
2022-10-17T03:05:15.571Z,9.20
2022-10-17T03:06:14.690Z,7.60
2022-10-17T03:07:15.609Z,6.60
2022-10-17T03:08:14.669Z,8.40
2022-10-17T03:09:15.460Z,8.60
2022-10-17T03:10:15.310Z,7.70
2022-10-17T03:11:14.630Z,7.60
2022-10-17T03:12:16.339Z,6.70
2022-10-17T03:13:15.099Z,7.00
2022-10-17T03:14:14.599Z,7.20
2022-10-17T03:15:15.359Z,8.20
2022-10-17T03:16:15.369Z,9.10
2022-10-17T03:17:15.649Z,8.20
2022-10-17T03:18:14.569Z,6.80
2022-10-17T03:19:15.369Z,7.40
2022-10-17T03:20:14.531Z,8.20
2022-10-17T03:21:15.839Z,8.00
2022-10-17T03:22:15.329Z,7.90
2022-10-17T03:23:15.090Z,9.20
2022-10-17T03:24:15.319Z,8.50
2022-10-17T03:25:14.488Z,7.50
2022-10-17T03:26:15.989Z,7.50
2022-10-17T03:27:14.818Z,8.50
2022-10-17T03:28:15.459Z,8.10
2022-10-17T03:29:15.129Z,7.80
2022-10-17T03:30:15.319Z,6.80
2022-10-17T03:31:14.419Z,7.70
2022-10-17T03:32:15.230Z,8.40
2022-10-17T03:33:15.291Z,7.20
2022-10-17T03:34:15.230Z,8.00
2022-10-17T03:35:15.272Z,7.20
2022-10-17T03:36:15.170Z,7.40
2022-10-17T03:37:15.102Z,9.30
2022-10-17T03:38:14.399Z,7.20
2022-10-17T03:39:15.170Z,6.90
2022-10-17T03:40:15.043Z,7.20
2022-10-17T03:41:16.279Z,6.70
2022-10-17T03:42:15.120Z,7.40
2022-10-17T03:43:14.339Z,6.50
2022-10-17T03:44:15.920Z,7.00
2022-10-17T03:45:15.060Z,6.00
2022-10-17T03:46:15.093Z,7.20
2022-10-17T03:47:16.085Z,5.70
2022-10-17T03:48:15.050Z,6.40
2022-10-17T03:49:15.168Z,6.20
2022-10-17T03:50:14.228Z,7.90
2022-10-17T03:51:15.000Z,8.00
2022-10-17T03:52:14.930Z,7.20
2022-10-17T03:53:14.860Z,8.10
2022-10-17T03:54:14.190Z,9.00
2022-10-17T03:55:15.619Z,6.70
2022-10-17T03:56:14.950Z,8.20
2022-10-17T03:57:14.190Z,7.40
2022-10-17T03:58:15.061Z,6.60
2022-10-17T03:59:14.129Z,7.70
2022-10-17T04:00:14.939Z,8.00
2022-10-17T04:01:14.854Z,7.50
2022-10-17T04:02:14.099Z,8.90
2022-10-17T04:03:17.255Z,9.50
2022-10-17T04:04:14.909Z,8.00
2022-10-17T04:05:14.870Z,9.00
2022-10-17T04:06:14.840Z,7.40
2022-10-17T04:07:14.115Z,9.00
2022-10-17T04:08:14.899Z,7.50
2022-10-17T04:09:14.812Z,7.50
2022-10-17T04:10:14.660Z,6.40
2022-10-17T04:11:14.782Z,7.70
2022-10-17T04:12:14.662Z,5.80
2022-10-17T04:13:14.939Z,5.30
2022-10-17T04:14:14.670Z,6.40
2022-10-17T04:15:14.810Z,5.30
2022-10-17T04:16:14.619Z,5.90
2022-10-17T04:17:14.769Z,6.00
2022-10-17T04:18:14.730Z,5.80
2022-10-17T04:19:14.739Z,6.00
2022-10-17T04:20:14.640Z,6.30
2022-10-17T04:21:14.889Z,9.90
2022-10-17T04:22:14.679Z,18.60
2022-10-17T04:23:14.790Z,20.60
2022-10-17T04:24:14.709Z,12.10
2022-10-17T04:25:14.499Z,7.90
2022-10-17T04:26:14.699Z,7.30
2022-10-17T04:27:14.469Z,7.10
2022-10-17T04:28:14.719Z,7.50
2022-10-17T04:29:14.480Z,8.40
2022-10-17T04:30:14.829Z,7.80
2022-10-17T04:31:13.800Z,8.50
2022-10-17T04:32:14.641Z,6.60
2022-10-17T04:33:14.502Z,6.40
2022-10-17T04:34:14.639Z,7.40
2022-10-17T04:35:14.449Z,5.80
2022-10-17T04:36:14.580Z,6.30
2022-10-17T04:37:13.739Z,5.10
2022-10-17T04:38:14.589Z,6.10
2022-10-17T04:40:14.439Z,5.70
2022-10-17T04:41:14.499Z,4.50
2022-10-17T04:42:14.339Z,4.50
2022-10-17T04:43:14.451Z,3.70
2022-10-17T04:44:14.519Z,5.00
2022-10-17T04:45:14.502Z,4.40
2022-10-17T04:46:14.410Z,4.60
2022-10-17T04:47:14.473Z,4.80
2022-10-17T04:48:14.312Z,5.10
2022-10-17T04:49:14.650Z,4.30
2022-10-17T04:50:14.283Z,5.00
2022-10-17T04:51:14.419Z,3.90
2022-10-17T04:52:14.430Z,5.30
2022-10-17T04:53:14.520Z,7.00
2022-10-17T04:54:14.450Z,4.60
2022-10-17T04:55:14.190Z,4.40
2022-10-17T04:56:13.562Z,5.40
2022-10-17T04:57:14.119Z,4.60
2022-10-17T04:58:14.319Z,4.80
2022-10-17T04:59:14.209Z,4.40
2022-10-17T05:00:14.410Z,5.30
2022-10-17T05:01:14.272Z,4.50
2022-10-17T05:02:14.259Z,5.90
2022-10-17T05:03:14.149Z,5.40
2022-10-17T05:04:14.388Z,5.20
2022-10-17T05:05:14.169Z,5.80
2022-10-17T05:06:14.259Z,6.90
2022-10-17T05:07:14.190Z,5.80
2022-10-17T05:08:14.271Z,6.20
2022-10-17T05:09:14.369Z,5.60
2022-10-17T05:10:14.229Z,6.30
2022-10-17T05:11:14.200Z,6.00
2022-10-17T05:12:14.100Z,5.10
2022-10-17T05:13:14.152Z,4.90
2022-10-17T05:14:14.149Z,5.50
2022-10-17T05:15:13.339Z,6.40
2022-10-17T05:16:14.010Z,5.90
2022-10-17T05:17:14.199Z,5.30
2022-10-17T05:18:13.979Z,5.60
2022-10-17T05:19:14.220Z,6.10
2022-10-17T05:20:13.299Z,5.20
2022-10-17T05:21:15.210Z,5.30
2022-10-17T05:22:14.029Z,5.80
2022-10-17T05:23:14.059Z,5.30
2022-10-17T05:24:14.110Z,6.40
2022-10-17T05:25:14.060Z,6.60
2022-10-17T05:26:13.254Z,6.20
2022-10-17T05:27:14.879Z,6.00
2022-10-17T05:28:13.979Z,5.70
2022-10-17T05:29:13.263Z,4.60
2022-10-17T05:30:15.220Z,5.50
2022-10-17T05:31:14.128Z,5.10
2022-10-17T05:32:13.169Z,6.00
2022-10-17T05:33:13.819Z,4.60
2022-10-17T05:34:14.025Z,5.20
2022-10-17T05:35:14.029Z,5.30
2022-10-17T05:36:13.119Z,5.40
2022-10-17T05:37:14.390Z,4.80
2022-10-17T05:38:14.019Z,5.50
2022-10-17T05:39:13.849Z,4.50
2022-10-17T05:40:14.060Z,4.40
2022-10-17T05:41:13.839Z,6.80
2022-10-17T05:42:13.769Z,4.50
2022-10-17T05:43:13.930Z,5.20
2022-10-17T05:44:13.060Z,6.20
2022-10-17T05:45:14.511Z,5.20
2022-10-17T05:46:13.720Z,5.40
2022-10-17T05:47:13.069Z,5.70
2022-10-17T05:48:14.379Z,5.60
2022-10-17T05:49:25.223Z,5.20
2022-10-17T05:50:14.110Z,6.00
2022-10-17T05:51:13.039Z,6.50
2022-10-17T05:52:14.321Z,5.70
2022-10-17T05:53:13.769Z,7.10
2022-10-17T05:54:12.939Z,5.80
2022-10-17T05:55:13.748Z,5.90
2022-10-17T05:56:13.809Z,5.90
2022-10-17T05:57:13.488Z,5.50
2022-10-17T05:58:21.843Z,5.00
2022-10-17T05:59:13.519Z,5.90
2022-10-17T06:00:12.880Z,6.30
2022-10-17T06:01:14.409Z,5.10
2022-10-17T06:02:13.797Z,6.10
2022-10-17T06:03:12.880Z,6.20
2022-10-17T06:04:13.709Z,6.00
2022-10-17T06:05:12.819Z,6.10
2022-10-17T06:06:13.690Z,6.40
2022-10-17T06:07:13.599Z,5.00
2022-10-17T06:08:13.629Z,5.30
2022-10-17T06:09:13.570Z,5.30
2022-10-17T06:10:13.612Z,5.20
2022-10-17T06:11:12.770Z,5.50
2022-10-17T06:12:14.462Z,5.70
2022-10-17T06:13:12.773Z,10.80
2022-10-17T06:14:14.581Z,10.40
2022-10-17T06:15:13.528Z,9.60
2022-10-17T06:16:12.709Z,9.80
2022-10-17T06:17:16.184Z,6.70
2022-10-17T06:18:12.689Z,6.40
2022-10-17T06:19:13.509Z,6.60
2022-10-17T06:20:13.318Z,5.70
2022-10-17T06:21:13.449Z,6.40
2022-10-17T06:22:13.498Z,7.00
2022-10-17T06:23:12.640Z,6.50
2022-10-17T06:24:13.588Z,7.20
2022-10-17T06:25:13.488Z,6.00
2022-10-17T06:26:13.358Z,5.60
2022-10-17T06:27:13.239Z,5.10
2022-10-17T06:28:12.650Z,5.40
2022-10-17T06:29:13.169Z,6.20
2022-10-17T06:30:13.369Z,5.70
2022-10-17T06:31:13.190Z,5.20
2022-10-17T06:32:15.120Z,5.20
2022-10-17T06:33:12.580Z,5.10
2022-10-17T06:34:13.301Z,5.90
2022-10-17T06:35:13.549Z,5.80
2022-10-17T06:36:12.615Z,5.00
2022-10-17T06:37:13.921Z,5.90
2022-10-17T06:38:12.690Z,5.50
2022-10-17T06:39:13.270Z,5.30
2022-10-17T06:40:13.269Z,5.40
2022-10-17T06:41:13.269Z,5.30
2022-10-17T06:42:12.469Z,5.00
2022-10-17T06:43:13.212Z,4.90
2022-10-17T06:44:13.143Z,4.50
2022-10-17T06:45:12.428Z,5.20
2022-10-17T06:46:13.979Z,5.60
2022-10-17T06:47:15.382Z,5.20
2022-10-17T06:48:12.379Z,5.40
2022-10-17T06:49:12.379Z,4.80
2022-10-17T06:50:13.178Z,5.90
2022-10-17T06:51:12.349Z,4.90
2022-10-17T06:52:13.010Z,4.50
2022-10-17T06:53:12.328Z,5.40
2022-10-17T06:54:14.229Z,4.70
2022-10-17T06:55:14.884Z,5.50
2022-10-17T06:56:12.319Z,4.90
2022-10-17T06:57:13.180Z,4.90
2022-10-17T06:58:12.279Z,5.10
2022-10-17T06:59:13.929Z,4.80
2022-10-17T07:00:13.069Z,4.70
2022-10-17T07:01:12.349Z,4.30
2022-10-17T07:02:14.350Z,4.60
2022-10-17T07:03:13.100Z,6.10
2022-10-17T07:04:13.199Z,4.10
2022-10-17T07:05:12.879Z,6.00
2022-10-17T07:06:13.266Z,5.10
2022-10-17T07:07:12.988Z,5.20
2022-10-17T07:08:12.200Z,5.70
2022-10-17T07:09:13.589Z,5.70
2022-10-17T07:10:12.970Z,5.50
2022-10-17T07:11:12.199Z,4.80
2022-10-17T07:12:12.949Z,5.90
2022-10-17T07:13:12.899Z,5.60
2022-10-17T07:14:12.769Z,5.20
2022-10-17T07:15:13.008Z,5.90
2022-10-17T07:16:12.719Z,5.70
2022-10-17T07:17:13.130Z,5.90
2022-10-17T07:18:12.710Z,5.20
2022-10-17T07:19:12.869Z,5.90
2022-10-17T07:20:12.718Z,4.90
2022-10-17T07:21:12.848Z,5.40
2022-10-17T07:22:12.780Z,5.10
2022-10-17T07:23:12.879Z,5.30
2022-10-17T07:24:12.739Z,4.50
2022-10-17T07:25:12.820Z,5.80
2022-10-17T07:26:12.739Z,5.00
2022-10-17T07:27:12.800Z,5.80
2022-10-17T07:28:12.821Z,5.40
2022-10-17T07:29:12.620Z,5.30
2022-10-17T07:30:12.840Z,5.50
2022-10-17T07:31:12.559Z,4.70
2022-10-17T07:32:12.702Z,6.20
2022-10-17T07:33:12.620Z,6.60
2022-10-17T07:34:12.710Z,5.40
2022-10-17T07:35:12.736Z,5.00
2022-10-17T07:36:12.840Z,5.70
2022-10-17T07:37:12.658Z,5.30
2022-10-17T07:38:12.679Z,5.10
2022-10-17T07:39:12.679Z,5.10
2022-10-17T07:40:12.761Z,6.20
2022-10-17T07:41:28.213Z,6.20
2022-10-17T07:42:12.716Z,6.00
2022-10-17T07:43:12.615Z,5.60
2022-10-17T07:44:12.534Z,6.50
2022-10-17T07:45:12.605Z,4.60
2022-10-17T07:46:12.364Z,5.80
2022-10-17T07:47:12.625Z,4.80
2022-10-17T07:48:12.375Z,4.80
2022-10-17T07:49:12.576Z,5.20
2022-10-17T07:50:12.476Z,5.30
2022-10-17T07:51:12.559Z,5.20
2022-10-17T07:52:12.455Z,5.80
2022-10-17T07:53:12.665Z,6.10
2022-10-17T07:54:13.155Z,4.70
2022-10-17T07:55:12.505Z,5.30
2022-10-17T07:56:12.565Z,5.70
2022-10-17T07:57:12.488Z,4.90
2022-10-17T07:58:12.386Z,6.00
2022-10-17T07:59:12.565Z,6.60
2022-10-17T08:00:12.421Z,5.10
2022-10-17T08:01:14.950Z,6.10
2022-10-17T08:02:12.456Z,6.00
2022-10-17T08:03:12.314Z,5.60
2022-10-17T08:04:12.454Z,5.50
2022-10-17T08:05:12.267Z,5.20
2022-10-17T08:06:12.434Z,6.10
2022-10-17T08:07:21.762Z,5.60
2022-10-17T08:08:12.424Z,5.90
2022-10-17T08:09:12.386Z,5.80
2022-10-17T08:10:12.337Z,5.20
2022-10-17T08:11:11.546Z,5.30
2022-10-17T08:12:12.364Z,5.50
2022-10-17T08:13:12.305Z,5.30
2022-10-17T08:14:11.603Z,5.70
2022-10-17T08:15:12.295Z,5.40
2022-10-17T08:16:12.099Z,5.80
2022-10-17T08:17:11.464Z,5.30
2022-10-17T08:18:13.104Z,5.80
2022-10-17T08:19:12.276Z,5.10
2022-10-17T08:20:12.106Z,6.10
2022-10-17T08:21:12.224Z,5.50
2022-10-17T08:22:12.229Z,5.80
2022-10-17T08:23:12.425Z,5.00
2022-10-17T08:24:12.286Z,5.30
2022-10-17T08:25:12.225Z,5.60
2022-10-17T08:26:12.065Z,6.70
2022-10-17T08:27:12.165Z,6.10
2022-10-17T08:28:12.136Z,5.60
2022-10-17T08:29:12.228Z,5.70
2022-10-17T08:30:12.188Z,6.10
2022-10-17T08:31:11.957Z,4.80
2022-10-17T08:32:12.085Z,5.70
2022-10-17T08:33:11.946Z,5.40
2022-10-17T08:34:12.166Z,6.00
2022-10-17T08:35:12.585Z,5.60
2022-10-17T08:36:11.345Z,5.60
2022-10-17T08:37:11.947Z,4.60
2022-10-17T08:38:13.403Z,6.80
2022-10-17T08:39:11.936Z,5.80
2022-10-17T08:40:11.231Z,5.30
2022-10-17T08:41:11.911Z,5.40
2022-10-17T08:42:12.065Z,5.60
2022-10-17T08:43:11.954Z,5.70
2022-10-17T08:44:12.095Z,5.50
2022-10-17T08:45:11.925Z,6.30
2022-10-17T08:46:11.823Z,5.50
2022-10-17T08:47:11.945Z,5.60
2022-10-17T08:48:11.167Z,4.80
2022-10-17T08:49:12.219Z,5.70
2022-10-17T08:50:11.887Z,5.60
2022-10-17T08:51:11.995Z,5.90
2022-10-17T08:52:11.758Z,6.10
2022-10-17T08:53:11.926Z,6.00
2022-10-17T08:54:11.946Z,6.70
2022-10-17T08:55:12.052Z,5.40
2022-10-17T08:56:15.381Z,4.80
2022-10-17T08:57:11.839Z,5.70
2022-10-17T08:58:11.801Z,5.40
2022-10-17T08:59:11.865Z,4.90
2022-10-17T09:00:11.785Z,4.80
2022-10-17T09:01:13.229Z,5.50
2022-10-17T09:02:11.839Z,5.00
2022-10-17T09:03:11.767Z,5.60
2022-10-17T09:04:11.785Z,4.40
2022-10-17T09:05:11.628Z,5.90
2022-10-17T09:06:11.777Z,5.70
2022-10-17T09:07:11.717Z,5.20
2022-10-17T09:08:11.875Z,6.20
2022-10-17T09:09:11.753Z,5.00
2022-10-17T09:10:11.766Z,4.80
2022-10-17T09:11:11.616Z,5.20
2022-10-17T09:12:10.915Z,5.60
2022-10-17T09:13:12.837Z,4.50
2022-10-17T09:14:11.764Z,5.50
2022-10-17T09:15:11.716Z,5.20
2022-10-17T09:16:11.640Z,5.20
2022-10-17T09:17:11.656Z,5.70
2022-10-17T09:18:10.866Z,5.40
2022-10-17T09:19:11.763Z,5.60
2022-10-17T09:20:11.535Z,4.70
2022-10-17T09:21:11.609Z,6.00
2022-10-17T09:22:11.496Z,5.30
2022-10-17T09:23:11.548Z,5.30
2022-10-17T09:24:15.774Z,5.90
2022-10-17T09:25:11.596Z,5.20
2022-10-17T09:26:11.614Z,4.70
2022-10-17T09:27:11.544Z,5.50
2022-10-17T09:28:11.599Z,5.40
2022-10-17T09:29:11.714Z,5.50
2022-10-17T09:30:21.335Z,6.30
2022-10-17T09:31:11.560Z,5.60
2022-10-17T09:32:11.575Z,5.00
2022-10-17T09:33:23.105Z,6.30
2022-10-17T09:34:11.744Z,6.10
2022-10-17T09:35:11.325Z,5.60
2022-10-17T09:36:11.416Z,5.50
2022-10-17T09:37:11.260Z,5.50
2022-10-17T09:38:11.535Z,7.40
2022-10-17T09:39:11.325Z,5.60
2022-10-17T09:40:11.555Z,6.30
2022-10-17T09:41:31.975Z,6.50
2022-10-17T09:42:11.558Z,6.20
2022-10-17T09:43:11.315Z,5.60
2022-10-17T09:44:11.604Z,5.80
2022-10-17T09:45:11.396Z,6.60
2022-10-17T09:46:11.375Z,6.40
2022-10-17T09:47:12.347Z,6.10
2022-10-17T09:48:11.173Z,6.50
2022-10-17T09:49:12.310Z,12.30
2022-10-17T09:50:11.243Z,5.60
2022-10-17T09:51:21.897Z,6.50
2022-10-17T09:52:11.257Z,6.40
2022-10-17T09:53:11.285Z,5.70
2022-10-17T09:54:10.466Z,5.50
2022-10-17T09:55:11.915Z,5.40
2022-10-17T09:56:10.975Z,5.60
2022-10-17T09:57:11.280Z,5.30
2022-10-17T09:58:11.210Z,6.00
2022-10-17T09:59:13.764Z,5.70
2022-10-17T10:00:12.146Z,6.60
2022-10-17T10:01:11.296Z,6.50
2022-10-17T10:02:11.157Z,6.20
2022-10-17T10:03:11.134Z,5.90
2022-10-17T10:04:10.447Z,6.80
2022-10-17T10:05:11.035Z,5.00
2022-10-17T10:06:11.116Z,5.80
2022-10-17T10:07:10.905Z,5.70
2022-10-17T10:08:11.085Z,7.10
2022-10-17T10:09:10.366Z,6.70
2022-10-17T10:10:12.624Z,5.40
2022-10-17T10:11:13.891Z,6.60
2022-10-17T10:12:10.305Z,5.40
2022-10-17T10:13:11.518Z,6.30
2022-10-17T10:14:11.119Z,6.10
2022-10-17T10:15:10.964Z,5.90
2022-10-17T10:16:10.412Z,5.70
2022-10-17T10:17:11.557Z,6.50
2022-10-17T10:18:11.085Z,6.40
2022-10-17T10:19:10.196Z,6.00
2022-10-17T10:20:11.526Z,5.40
2022-10-17T10:21:10.950Z,5.80
2022-10-17T10:22:10.234Z,6.30
2022-10-17T10:23:11.484Z,7.10
2022-10-17T10:24:10.841Z,5.80
2022-10-17T10:25:10.133Z,5.10
2022-10-17T10:26:12.426Z,5.90
2022-10-17T10:27:10.974Z,6.20
2022-10-17T10:28:10.877Z,6.50
2022-10-17T10:29:11.041Z,6.20
2022-10-17T10:30:10.094Z,6.30
2022-10-17T10:31:11.373Z,6.20
2022-10-17T10:32:10.616Z,6.60
2022-10-17T10:33:10.078Z,6.00
2022-10-17T10:34:11.735Z,5.70
2022-10-17T10:35:10.748Z,5.80
2022-10-17T10:36:11.454Z,6.20
2022-10-17T10:37:13.473Z,5.80
2022-10-17T10:38:10.904Z,6.60
2022-10-17T10:39:10.074Z,6.30
2022-10-17T10:40:11.536Z,6.60
2022-10-17T10:41:10.645Z,6.70
2022-10-17T10:42:10.786Z,5.80
2022-10-17T10:43:10.025Z,5.70
2022-10-17T10:44:11.574Z,6.00
2022-10-17T10:45:23.667Z,6.00
2022-10-17T10:46:10.928Z,5.80
2022-10-17T10:47:11.365Z,5.70
2022-10-17T10:48:09.895Z,5.20
2022-10-17T10:49:11.965Z,5.10
2022-10-17T10:50:10.808Z,6.20
2022-10-17T10:51:10.728Z,7.30
2022-10-17T10:52:09.855Z,5.50
2022-10-17T10:53:11.766Z,6.00
2022-10-17T10:54:10.555Z,6.00
2022-10-17T10:55:09.835Z,5.50
2022-10-17T10:56:11.825Z,6.00
2022-10-17T10:57:11.036Z,6.20
2022-10-17T10:58:10.499Z,5.60
2022-10-17T10:59:10.865Z,7.70
2022-10-17T11:00:11.225Z,5.50
2022-10-17T11:01:10.661Z,6.40
2022-10-17T11:02:10.504Z,5.80
2022-10-17T11:03:12.662Z,5.90
2022-10-17T11:04:09.766Z,5.00
2022-10-17T11:05:10.602Z,6.50
2022-10-17T11:06:10.615Z,7.20
2022-10-17T11:07:10.826Z,5.80
2022-10-17T11:08:10.514Z,5.10
2022-10-17T11:09:09.707Z,6.80
2022-10-17T11:10:10.954Z,7.80
2022-10-17T11:11:09.826Z,6.00
2022-10-17T11:12:09.701Z,6.70
2022-10-17T11:13:11.127Z,5.80
2022-10-17T11:14:13.047Z,6.00
2022-10-17T11:15:10.357Z,5.80
2022-10-17T11:16:10.414Z,5.70
2022-10-17T11:17:10.415Z,6.80
2022-10-17T11:18:10.444Z,5.80
2022-10-17T11:19:10.325Z,6.40
2022-10-17T11:20:10.416Z,6.20
2022-10-17T11:21:10.365Z,6.00
2022-10-17T11:22:10.186Z,6.20
2022-10-17T11:23:10.405Z,5.10
2022-10-17T11:24:10.167Z,5.80
2022-10-17T11:25:10.344Z,5.90
2022-10-17T11:26:10.175Z,6.50
2022-10-17T11:27:09.518Z,5.80
2022-10-17T11:28:10.178Z,6.40
2022-10-17T11:29:09.585Z,7.00
2022-10-17T11:30:11.544Z,5.00
2022-10-17T11:31:10.365Z,6.10
2022-10-17T11:32:09.447Z,5.80
2022-10-17T11:33:11.035Z,6.50
2022-10-17T11:34:09.905Z,6.10
2022-10-17T11:35:10.375Z,5.70
2022-10-17T11:36:09.405Z,6.10
2022-10-17T11:37:10.075Z,5.70
2022-10-17T11:38:10.174Z,6.10
2022-10-17T11:39:09.995Z,5.00
2022-10-17T11:40:10.174Z,5.70
2022-10-17T11:41:10.075Z,6.60
2022-10-17T11:42:10.195Z,6.50
2022-10-17T11:43:10.005Z,5.60
2022-10-17T11:44:10.154Z,5.90
2022-10-17T11:45:09.975Z,6.00
2022-10-17T11:46:10.135Z,6.20
2022-10-17T11:47:10.054Z,4.70
2022-10-17T11:48:09.296Z,5.70
2022-10-17T11:49:10.442Z,5.40
2022-10-17T11:52:10.815Z,5.00
2022-10-17T11:53:10.086Z,4.80
2022-10-17T11:54:09.827Z,6.20
2022-10-17T11:55:10.016Z,4.60
2022-10-17T11:56:09.885Z,5.20
2022-10-17T11:57:13.961Z,5.70
2022-10-17T11:58:09.815Z,5.40
2022-10-17T11:59:10.175Z,5.80
2022-10-17T12:00:10.044Z,5.50
2022-10-17T12:01:09.996Z,6.60
2022-10-17T12:02:09.914Z,5.60
2022-10-17T12:03:10.115Z,5.00
2022-10-17T12:04:09.899Z,5.00
2022-10-17T12:05:10.025Z,6.20
2022-10-17T12:06:09.813Z,5.40
2022-10-17T12:07:10.053Z,5.40
2022-10-17T12:08:09.899Z,5.10
2022-10-17T12:09:09.687Z,5.10
2022-10-17T12:10:09.885Z,5.30
2022-10-17T12:11:09.765Z,5.60
2022-10-17T12:12:09.855Z,5.20
2022-10-17T12:13:09.695Z,4.90
2022-10-17T12:14:09.855Z,5.00
2022-10-17T12:15:10.288Z,5.70
2022-10-17T12:16:11.022Z,5.70
2022-10-17T12:17:09.793Z,5.00
2022-10-17T12:18:09.845Z,6.20
2022-10-17T12:19:09.675Z,5.00
2022-10-17T12:20:09.725Z,5.60
2022-10-17T12:21:09.824Z,4.70
2022-10-17T12:22:09.734Z,5.80
2022-10-17T12:23:09.779Z,5.80
2022-10-17T12:24:09.555Z,4.80
2022-10-17T12:25:09.698Z,5.60
2022-10-17T12:26:09.776Z,5.30
2022-10-17T12:27:09.725Z,5.40
2022-10-17T12:28:09.516Z,4.40
2022-10-17T12:29:09.907Z,4.50
2022-10-17T12:30:09.665Z,5.10
2022-10-17T12:31:09.787Z,4.60
2022-10-17T12:32:09.566Z,5.50
2022-10-17T12:33:09.635Z,5.20
2022-10-17T12:34:09.766Z,5.30
2022-10-17T12:35:09.655Z,5.60
2022-10-17T12:36:09.536Z,5.00
2022-10-17T12:37:09.605Z,5.30
2022-10-17T12:38:09.546Z,5.60
2022-10-17T12:39:09.434Z,5.50
2022-10-17T12:40:09.605Z,5.10
2022-10-17T12:41:09.455Z,5.30
2022-10-17T12:42:09.476Z,4.50
2022-10-17T12:43:09.475Z,5.30
2022-10-17T12:44:09.487Z,5.30
2022-10-17T12:45:09.355Z,5.30
2022-10-17T12:46:09.474Z,5.10
2022-10-17T12:47:09.465Z,5.30
2022-10-17T12:48:09.444Z,5.50
2022-10-17T12:49:09.376Z,5.30
2022-10-17T12:50:09.467Z,5.40
2022-10-17T12:51:34.303Z,4.90
2022-10-17T12:52:09.577Z,4.00
2022-10-17T12:53:09.386Z,5.30
2022-10-17T12:54:09.227Z,4.60
2022-10-17T12:55:13.805Z,4.60
2022-10-17T12:56:09.259Z,4.70
2022-10-17T12:57:09.526Z,4.80
2022-10-17T12:58:09.410Z,4.50
2022-10-17T12:59:09.315Z,4.20
2022-10-17T13:00:09.205Z,4.70
2022-10-17T13:01:23.845Z,4.70
2022-10-17T13:02:09.235Z,4.40
2022-10-17T13:03:09.384Z,4.50
2022-10-17T13:04:09.305Z,4.80
2022-10-17T13:05:09.394Z,5.30
2022-10-17T13:06:09.196Z,5.00
2022-10-17T13:07:09.255Z,5.20
2022-10-17T13:08:09.436Z,5.00
2022-10-17T13:09:09.265Z,5.10
2022-10-17T13:10:12.512Z,4.20
2022-10-17T13:11:09.353Z,4.80
2022-10-17T13:12:09.254Z,4.60
2022-10-17T13:13:09.045Z,5.00
2022-10-17T13:14:09.215Z,4.10
2022-10-17T13:15:09.086Z,4.80
2022-10-17T13:16:09.385Z,5.50
2022-10-17T13:17:09.075Z,4.90
2022-10-17T13:18:09.306Z,5.60
2022-10-17T13:19:09.045Z,4.90
2022-10-17T13:20:09.275Z,3.80
2022-10-17T13:21:09.016Z,5.30